BDN weather

Bend Municipal Airport
Bend, Oregon, United States

Public forecast

Using degrees Fahrenheit for public forecast. Weather courtesy of forecast.io.

Current aviation weather report (METAR) for Bend Municipal Airport

Retrieved 2019/12/12 13:35 UTC (0 seconds ago):

KBDN 121335Z AUTO 23010G19KT 10SM FEW040 07/01 A3001 RMK AO2

Aviation forecast (TAF) for Bend Municipal Airport

Retrieved 2019/12/12 12:22 UTC (58 minutes ago):

TAF KBDN 121120Z 1212/1312 22011KT P6SM VCSH SCT020 OVC035 FM121400 19010KT P6SM SCT040 BKN100 FM121900 22014G20KT 6SM -SHRA OVC025 FM122300 24015G25KT 6SM -SHRA OVC030 FM130600 21010KT P6SM VCSH BKN050 OVC100